CheckWX is a tool to help pilots better visualize weather data.  It is not intended as a substitute for an official pre-flight weather briefing.

02:47:40 UTC

KLKU METAR
Louisa County / Freeman Field Airport
Louisa, Virginia, USA
Current

33 mins ago

KLKU 230215Z AUTO 17006KT 10SM CLR 24/18 A3010 RMK AO2 T02440176
Observed
Sep-23 @ 02:15 UTC
Wind
  • 170° at 6 KTS
Visibility
10 SM
Flight Rules
VFR
Cloud Levels
  • Clear skies
Temperature
24°C / 75°F
Dewpoint
18°C / 64°F
Humidity
69%
Altimeter
30.1" Hg
Pressure
1019.32 hPa
Previous

53 mins ago

KLKU 230155Z AUTO 17006KT 10SM CLR 25/18 A3010 RMK AO2 T02450177
Observed
Sep-23 @ 01:55 UTC
Wind
  • 170° at 6 KTS
Visibility
10 SM
Flight Rules
VFR
Cloud Levels
  • Clear skies
Temperature
25°C / 77°F
Dewpoint
18°C / 64°F
Humidity
65%
Altimeter
30.1" Hg
Pressure
1019.32 hPa
Previous

1 hour ago

KLKU 230135Z AUTO 16005KT 10SM CLR 25/18 A3010 RMK AO2 T02460180
Observed
Sep-23 @ 01:35 UTC
Wind
  • 160° at 5 KTS
Visibility
10 SM
Flight Rules
VFR
Cloud Levels
  • Clear skies
Temperature
25°C / 77°F
Dewpoint
18°C / 64°F
Humidity
65%
Altimeter
30.1" Hg
Pressure
1019.32 hPa